createdAt,value
2018-02-23T00:00:46.980Z,79.76
2018-02-23T00:01:46.970Z,79.00
2018-02-23T00:02:46.966Z,80.14
2018-02-23T00:03:46.947Z,80.14
2018-02-23T00:04:46.931Z,79.76
2018-02-23T00:05:46.926Z,79.19
2018-02-23T00:06:46.914Z,78.76
2018-02-23T00:07:46.907Z,79.57
2018-02-23T00:08:46.892Z,80.37
2018-02-23T00:09:46.881Z,79.86
2018-02-23T00:10:46.866Z,80.33
2018-02-23T00:11:46.859Z,78.91
2018-02-23T00:12:46.849Z,78.34
2018-02-23T00:13:46.836Z,78.72
2018-02-23T00:14:46.825Z,78.81
2018-02-23T00:15:46.814Z,78.16
2018-02-23T00:16:46.804Z,77.87
2018-02-23T00:17:46.793Z,78.63
2018-02-23T00:18:46.779Z,79.00
2018-02-23T00:19:46.770Z,79.00
2018-02-23T00:20:46.758Z,79.10
2018-02-23T00:21:46.753Z,78.53
2018-02-23T00:22:46.734Z,79.00
2018-02-23T00:23:46.726Z,78.81
2018-02-23T00:24:46.713Z,78.06
2018-02-23T00:25:46.702Z,78.81
2018-02-23T00:26:46.690Z,78.34
2018-02-23T00:27:46.679Z,78.44
2018-02-23T00:28:46.668Z,78.81
2018-02-23T00:29:46.659Z,78.16
2018-02-23T00:30:46.645Z,78.91
2018-02-23T00:31:46.634Z,78.06
2018-02-23T00:32:46.624Z,78.16
2018-02-23T00:33:46.611Z,78.44
2018-02-23T00:34:46.599Z,78.81
2018-02-23T00:35:46.599Z,78.44
2018-02-23T00:36:46.615Z,78.16
2018-02-23T00:37:46.566Z,78.81
2018-02-23T00:38:46.556Z,78.16
2018-02-23T00:39:46.544Z,77.78
2018-02-23T00:40:46.535Z,77.87
2018-02-23T00:41:46.521Z,78.06
2018-02-23T00:42:46.511Z,78.25
2018-02-23T00:43:46.502Z,79.00
2018-02-23T00:44:46.486Z,78.72
2018-02-23T00:45:46.474Z,79.10
2018-02-23T00:46:46.461Z,79.00
2018-02-23T00:47:46.451Z,79.19
2018-02-23T00:48:46.439Z,78.63
2018-02-23T00:49:46.427Z,78.81
2018-02-23T00:50:46.413Z,78.16
2018-02-23T00:51:46.404Z,78.25
2018-02-23T00:52:46.393Z,79.00
2018-02-23T00:53:46.382Z,78.34
2018-02-23T00:54:46.368Z,78.63
2018-02-23T00:55:46.356Z,78.72
2018-02-23T00:56:46.344Z,78.59
2018-02-23T00:57:46.335Z,78.40
2018-02-23T00:58:46.322Z,78.59
2018-02-23T00:59:46.310Z,78.87
2018-02-23T01:00:46.298Z,78.59
2018-02-23T01:01:46.285Z,78.59
2018-02-23T01:02:46.276Z,78.31
2018-02-23T01:03:46.261Z,78.87
2018-02-23T01:04:46.252Z,78.87
2018-02-23T01:05:46.239Z,78.87
2018-02-23T01:06:46.226Z,78.59
2018-02-23T01:07:46.264Z,78.59
2018-02-23T01:08:46.202Z,79.16
2018-02-23T01:09:46.192Z,78.50
2018-02-23T01:10:46.179Z,78.87
2018-02-23T01:11:46.167Z,78.68
2018-02-23T01:12:46.155Z,78.78
2018-02-23T01:13:46.143Z,79.06
2018-02-23T01:14:46.131Z,79.53
2018-02-23T01:15:46.121Z,79.35
2018-02-23T01:16:46.116Z,78.78
2018-02-23T01:17:46.095Z,79.16
2018-02-23T01:18:46.084Z,79.35
2018-02-23T01:19:46.071Z,78.68
2018-02-23T01:20:46.061Z,78.59
2018-02-23T01:21:46.047Z,78.59
2018-02-23T01:22:46.034Z,78.59
2018-02-23T01:23:46.023Z,79.44
2018-02-23T01:24:46.012Z,79.63
2018-02-23T01:25:46.002Z,78.97
2018-02-23T01:26:45.988Z,79.35
2018-02-23T01:27:45.976Z,79.44
2018-02-23T01:28:45.962Z,79.44
2018-02-23T01:29:45.952Z,78.87
2018-02-23T01:30:45.939Z,79.91
2018-02-23T01:31:45.927Z,79.91
2018-02-23T01:32:45.915Z,79.35
2018-02-23T01:33:45.905Z,79.35
2018-02-23T01:34:45.894Z,79.44
2018-02-23T01:35:45.881Z,78.87
2018-02-23T01:36:45.878Z,79.06
2018-02-23T01:37:45.858Z,78.87
2018-02-23T01:38:45.842Z,78.97
2018-02-23T01:39:45.831Z,79.25
2018-02-23T01:40:45.821Z,78.87
2018-02-23T01:41:45.839Z,79.35
2018-02-23T01:42:45.794Z,79.16
2018-02-23T01:43:45.783Z,79.06
2018-02-23T01:44:45.770Z,79.06
2018-02-23T01:45:45.760Z,78.97
2018-02-23T01:46:45.747Z,79.35
2018-02-23T01:47:45.740Z,79.25
2018-02-23T01:48:45.726Z,80.66
2018-02-23T01:49:45.711Z,80.19
2018-02-23T01:50:45.699Z,78.97
2018-02-23T01:51:45.687Z,79.63
2018-02-23T01:52:45.685Z,79.63
2018-02-23T01:53:45.663Z,79.25
2018-02-23T01:54:45.678Z,79.53
2018-02-23T01:55:45.639Z,79.06
2018-02-23T01:56:45.626Z,79.25
2018-02-23T01:57:45.615Z,79.16
2018-02-23T01:58:45.601Z,80.00
2018-02-23T01:59:45.589Z,80.19
2018-02-23T02:00:45.578Z,78.97
2018-02-23T02:01:45.568Z,80.19
2018-02-23T02:02:45.554Z,79.72
2018-02-23T02:03:45.542Z,79.63
2018-02-23T02:04:45.529Z,79.16
2018-02-23T02:05:45.517Z,80.29
2018-02-23T02:06:45.506Z,80.10
2018-02-23T02:07:45.491Z,79.35
2018-02-23T02:08:45.480Z,78.78
2018-02-23T02:09:45.467Z,79.82
2018-02-23T02:10:45.458Z,79.06
2018-02-23T02:11:45.446Z,79.06
2018-02-23T02:12:45.431Z,78.97
2018-02-23T02:13:45.419Z,78.87
2018-02-23T02:14:45.407Z,79.25
2018-02-23T02:15:45.399Z,78.78
2018-02-23T02:16:45.381Z,78.78
2018-02-23T02:17:45.370Z,78.92
2018-02-23T02:18:45.358Z,78.68
2018-02-23T02:19:45.347Z,79.06
2018-02-23T02:20:45.338Z,78.92
2018-02-23T02:21:45.322Z,78.92
2018-02-23T02:22:45.308Z,78.74
2018-02-23T02:23:45.297Z,79.11
2018-02-23T02:24:45.293Z,79.06
2018-02-23T02:25:45.271Z,79.11
2018-02-23T02:26:45.263Z,78.74
2018-02-23T02:27:45.246Z,79.11
2018-02-23T02:28:45.241Z,79.30
2018-02-23T02:29:45.223Z,78.83
2018-02-23T02:30:45.209Z,79.30
2018-02-23T02:31:45.200Z,78.83
2018-02-23T02:32:45.186Z,79.06
2018-02-23T02:33:45.177Z,78.74
2018-02-23T02:34:45.160Z,78.74
2018-02-23T02:35:45.150Z,78.36
2018-02-23T02:36:45.136Z,79.30
2018-02-23T02:37:45.127Z,79.30
2018-02-23T02:38:45.110Z,78.74
2018-02-23T02:39:45.095Z,78.74
2018-02-23T02:40:45.087Z,79.49
2018-02-23T02:41:45.076Z,79.30
2018-02-23T02:42:45.060Z,78.83
2018-02-23T02:43:45.056Z,78.83
2018-02-23T02:44:45.037Z,78.74
2018-02-23T02:45:45.024Z,79.11
2018-02-23T02:46:45.016Z,78.83
2018-02-23T02:47:45.003Z,79.21
2018-02-23T02:48:44.990Z,79.11
2018-02-23T02:49:44.974Z,78.64
2018-02-23T02:50:44.958Z,78.83
2018-02-23T02:51:44.948Z,78.92
2018-02-23T02:52:44.939Z,79.02
2018-02-23T02:53:44.926Z,79.59
2018-02-23T02:54:44.910Z,79.68
2018-02-23T02:55:44.897Z,79.68
2018-02-23T02:56:44.889Z,79.40
2018-02-23T02:57:44.874Z,79.68
2018-02-23T02:58:44.865Z,79.59
2018-02-23T02:59:44.855Z,79.40
2018-02-23T03:00:44.836Z,80.15
2018-02-23T03:01:44.824Z,79.68
2018-02-23T03:02:44.812Z,79.30
2018-02-23T03:03:44.800Z,80.15
2018-02-23T03:04:44.784Z,79.40
2018-02-23T03:05:45.023Z,79.87
2018-02-23T03:06:44.763Z,79.68
2018-02-23T03:07:44.754Z,79.78
2018-02-23T03:08:44.737Z,80.44
2018-02-23T03:09:44.724Z,80.34
2018-02-23T03:10:44.710Z,80.44
2018-02-23T03:11:44.698Z,79.59
2018-02-23T03:12:44.685Z,79.78
2018-02-23T03:13:44.674Z,79.87
2018-02-23T03:14:44.667Z,80.06
2018-02-23T03:15:44.651Z,80.53
2018-02-23T03:16:44.635Z,80.34
2018-02-23T03:17:44.624Z,79.87
2018-02-23T03:18:44.607Z,79.68
2018-02-23T03:19:44.595Z,79.87
2018-02-23T03:20:44.585Z,80.15
2018-02-23T03:21:44.579Z,79.30
2018-02-23T03:22:44.562Z,79.87
2018-02-23T03:23:44.583Z,80.34
2018-02-23T03:24:44.534Z,80.34
2018-02-23T03:25:44.527Z,80.25
2018-02-23T03:26:44.510Z,80.44
2018-02-23T03:27:44.540Z,80.25
2018-02-23T03:28:44.484Z,80.06
2018-02-23T03:29:44.470Z,80.25
2018-02-23T03:30:44.466Z,80.82
2018-02-23T03:31:44.444Z,80.06
2018-02-23T03:32:44.429Z,80.44
2018-02-23T03:33:44.421Z,80.53
2018-02-23T03:34:44.410Z,80.53
2018-02-23T03:35:44.397Z,80.34
2018-02-23T03:36:44.382Z,80.06
2018-02-23T03:37:44.379Z,80.06
2018-02-23T03:38:44.355Z,80.44
2018-02-23T03:39:44.344Z,80.82
2018-02-23T03:40:44.330Z,80.82
2018-02-23T03:41:44.317Z,80.15
2018-02-23T03:42:44.303Z,80.44
2018-02-23T03:43:44.292Z,80.34
2018-02-23T03:44:44.281Z,80.44
2018-02-23T03:45:44.269Z,80.25
2018-02-23T03:46:44.255Z,80.34
2018-02-23T03:47:44.240Z,80.06
2018-02-23T03:48:44.227Z,80.25
2018-02-23T03:49:44.219Z,80.21
2018-02-23T03:50:44.200Z,80.11
2018-02-23T03:51:44.189Z,80.21
2018-02-23T03:52:44.176Z,80.49
2018-02-23T03:53:44.161Z,80.21
2018-02-23T03:54:44.148Z,79.93
2018-02-23T03:55:44.137Z,80.21
2018-02-23T03:56:44.131Z,80.96
2018-02-23T03:57:44.112Z,80.49
2018-02-23T03:58:44.097Z,80.87
2018-02-23T03:59:44.085Z,80.68
2018-02-23T04:00:44.072Z,80.58
2018-02-23T04:01:44.063Z,79.83
2018-02-23T04:02:44.047Z,80.77
2018-02-23T04:03:44.034Z,80.11
2018-02-23T04:04:44.023Z,80.58
2018-02-23T04:05:44.011Z,80.58
2018-02-23T04:06:43.992Z,80.96
2018-02-23T04:07:43.983Z,80.40
2018-02-23T04:08:43.971Z,80.40
2018-02-23T04:09:43.958Z,80.30
2018-02-23T04:10:43.941Z,80.21
2018-02-23T04:11:43.928Z,80.68
2018-02-23T04:12:43.916Z,81.05
2018-02-23T04:13:43.905Z,80.30
2018-02-23T04:14:43.888Z,80.96
2018-02-23T04:15:43.876Z,80.40
2018-02-23T04:16:43.871Z,80.40
2018-02-23T04:17:43.854Z,80.96
2018-02-23T04:18:43.836Z,80.77
2018-02-23T04:19:43.825Z,80.30
2018-02-23T04:20:43.812Z,80.40
2018-02-23T04:21:43.811Z,80.96
2018-02-23T04:22:43.879Z,80.87
2018-02-23T04:23:43.779Z,80.58
2018-02-23T04:24:43.755Z,80.30
2018-02-23T04:25:43.747Z,80.87
2018-02-23T04:26:43.733Z,80.87
2018-02-23T04:27:43.720Z,80.96
2018-02-23T04:28:43.707Z,80.49
2018-02-23T04:29:43.694Z,80.77
2018-02-23T04:30:43.679Z,79.83
2018-02-23T04:31:43.665Z,81.15
2018-02-23T04:32:43.654Z,80.68
2018-02-23T04:33:43.651Z,81.05
2018-02-23T04:34:43.679Z,80.87
2018-02-23T04:35:43.614Z,81.15
2018-02-23T04:36:43.605Z,80.87
2018-02-23T04:37:43.589Z,80.77
2018-02-23T04:38:43.575Z,80.77
2018-02-23T04:39:43.562Z,80.77
2018-02-23T04:40:43.552Z,81.05
2018-02-23T04:41:43.537Z,80.87
2018-02-23T04:42:43.529Z,81.15
2018-02-23T04:43:43.510Z,81.24
2018-02-23T04:44:43.496Z,80.96
2018-02-23T04:45:43.483Z,81.05
2018-02-23T04:46:43.472Z,80.96
2018-02-23T04:47:43.457Z,80.87
2018-02-23T04:48:43.445Z,80.96
2018-02-23T04:49:43.431Z,81.24
2018-02-23T04:50:43.416Z,80.96
2018-02-23T04:51:43.405Z,80.30
2018-02-23T04:52:43.393Z,80.77
2018-02-23T04:53:43.382Z,80.58
2018-02-23T04:54:43.366Z,80.68
2018-02-23T04:55:43.351Z,81.43
2018-02-23T04:56:43.340Z,80.87
2018-02-23T04:57:43.326Z,80.49
2018-02-23T04:58:43.313Z,80.96
2018-02-23T04:59:43.297Z,81.24
2018-02-23T05:00:43.280Z,81.24
2018-02-23T05:01:43.272Z,81.15
2018-02-23T05:02:43.259Z,80.96
2018-02-23T05:03:43.246Z,80.87
2018-02-23T05:04:43.232Z,80.49
2018-02-23T05:05:43.221Z,80.96
2018-02-23T05:06:43.205Z,80.87
2018-02-23T05:07:43.193Z,80.68
2018-02-23T05:08:43.180Z,80.77
2018-02-23T05:09:43.168Z,80.87
2018-02-23T05:10:43.153Z,80.87
2018-02-23T05:11:43.140Z,80.68
2018-02-23T05:12:43.128Z,80.87
2018-02-23T05:13:43.115Z,81.05
2018-02-23T05:14:43.100Z,80.77
2018-02-23T05:15:43.090Z,80.68
2018-02-23T05:16:43.074Z,81.15
2018-02-23T05:17:43.062Z,80.96
2018-02-23T05:18:43.050Z,81.15
2018-02-23T05:19:43.041Z,80.58
2018-02-23T05:20:43.021Z,81.05
2018-02-23T05:21:43.006Z,81.24
2018-02-23T05:22:42.993Z,81.34
2018-02-23T05:23:42.979Z,80.77
2018-02-23T05:24:42.967Z,81.15
2018-02-23T05:25:42.954Z,80.87
2018-02-23T05:26:42.938Z,81.24
2018-02-23T05:27:42.928Z,80.40
2018-02-23T05:28:42.916Z,81.15
2018-02-23T05:29:42.914Z,80.77
2018-02-23T05:30:42.885Z,81.34
2018-02-23T05:31:42.871Z,81.53
2018-02-23T05:32:42.859Z,81.24
2018-02-23T05:33:42.848Z,81.43
2018-02-23T05:34:42.826Z,81.34
2018-02-23T05:35:42.820Z,81.24
2018-02-23T05:36:42.805Z,81.05
2018-02-23T05:37:42.792Z,81.43
2018-02-23T05:38:42.775Z,81.43
2018-02-23T05:39:42.767Z,81.15
2018-02-23T05:40:42.751Z,81.15
2018-02-23T05:41:42.740Z,80.87
2018-02-23T05:42:42.726Z,81.43
2018-02-23T05:43:42.711Z,81.15
2018-02-23T05:44:42.697Z,80.87
2018-02-23T05:45:42.685Z,80.87
2018-02-23T05:46:42.669Z,81.15
2018-02-23T05:47:42.655Z,80.87
2018-02-23T05:48:42.643Z,81.53
2018-02-23T05:49:42.633Z,81.43
2018-02-23T05:50:42.615Z,80.96
2018-02-23T05:51:42.602Z,81.34
2018-02-23T05:52:42.586Z,81.43
2018-02-23T05:53:42.574Z,81.43
2018-02-23T05:54:42.563Z,81.24
2018-02-23T05:55:42.545Z,81.15
2018-02-23T05:56:42.532Z,81.34
2018-02-23T05:57:42.518Z,81.43
2018-02-23T05:58:42.505Z,81.34
2018-02-23T05:59:42.493Z,80.87
2018-02-23T06:00:42.477Z,80.96
2018-02-23T06:01:42.460Z,81.34
2018-02-23T06:02:42.448Z,81.43
2018-02-23T06:03:42.438Z,80.58
2018-02-23T06:04:42.428Z,81.24
2018-02-23T06:05:42.409Z,81.62
2018-02-23T06:06:42.391Z,80.96
2018-02-23T06:07:42.382Z,81.11
2018-02-23T06:08:42.368Z,81.02
2018-02-23T06:09:42.354Z,81.21
2018-02-23T06:10:42.341Z,81.30
2018-02-23T06:11:42.325Z,82.00
2018-02-23T06:12:42.315Z,81.58
2018-02-23T06:13:42.298Z,81.40
2018-02-23T06:14:42.284Z,81.24
2018-02-23T06:15:42.271Z,81.62
2018-02-23T06:16:42.257Z,80.49
2018-02-23T06:17:42.244Z,81.72
2018-02-23T06:18:42.232Z,81.15
2018-02-23T06:19:42.219Z,81.15
2018-02-23T06:20:42.202Z,82.10
2018-02-23T06:21:42.189Z,81.15
2018-02-23T06:22:42.173Z,81.34
2018-02-23T06:23:42.161Z,81.05
2018-02-23T06:24:42.146Z,81.11
2018-02-23T06:25:42.133Z,80.92
2018-02-23T06:26:42.120Z,81.05
2018-02-23T06:27:42.103Z,81.15
2018-02-23T06:28:42.090Z,80.77
2018-02-23T06:29:42.078Z,81.24
2018-02-23T06:30:42.062Z,81.05
2018-02-23T06:31:42.050Z,81.43
2018-02-23T06:32:42.034Z,80.92
2018-02-23T06:33:42.021Z,81.24
2018-02-23T06:34:42.008Z,81.34
2018-02-23T06:35:41.993Z,81.81
2018-02-23T06:36:41.979Z,81.15
2018-02-23T06:37:41.965Z,81.34
2018-02-23T06:38:41.951Z,81.24
2018-02-23T06:39:41.943Z,82.00
2018-02-23T06:40:41.926Z,81.72
2018-02-23T06:41:41.911Z,81.15
2018-02-23T06:42:41.896Z,80.73
2018-02-23T06:43:41.880Z,81.24
2018-02-23T06:44:41.916Z,81.05
2018-02-23T06:45:41.854Z,81.53
2018-02-23T06:46:42.195Z,80.87
2018-02-23T06:47:41.824Z,81.40
2018-02-23T06:48:41.811Z,82.00
2018-02-23T06:49:41.797Z,81.30
2018-02-23T06:50:41.783Z,81.05
2018-02-23T06:51:41.769Z,81.91
2018-02-23T06:52:41.755Z,81.24
2018-02-23T06:53:41.743Z,81.24
2018-02-23T06:54:41.727Z,81.87
2018-02-23T06:55:41.713Z,80.92
2018-02-23T06:56:41.700Z,81.43
2018-02-23T06:57:41.686Z,81.91
2018-02-23T06:58:41.672Z,82.06
2018-02-23T06:59:41.658Z,81.58
2018-02-23T07:00:41.642Z,80.92
2018-02-23T07:01:41.630Z,81.87
2018-02-23T07:02:41.615Z,81.81
2018-02-23T07:03:41.601Z,81.81
2018-02-23T07:04:41.632Z,81.24
2018-02-23T07:05:41.574Z,82.06
2018-02-23T07:06:41.557Z,80.96
2018-02-23T07:07:41.545Z,82.06
2018-02-23T07:08:41.531Z,81.21
2018-02-23T07:09:41.517Z,81.96
2018-02-23T07:10:41.503Z,81.77
2018-02-23T07:11:41.489Z,81.11
2018-02-23T07:12:41.473Z,82.43
2018-02-23T07:13:41.461Z,81.68
2018-02-23T07:14:41.446Z,81.96
2018-02-23T07:15:41.431Z,80.96
2018-02-23T07:16:41.412Z,81.43
2018-02-23T07:17:41.403Z,81.24
2018-02-23T07:18:41.388Z,82.47
2018-02-23T07:19:41.375Z,81.43
2018-02-23T07:20:41.375Z,81.81
2018-02-23T07:21:41.342Z,81.34
2018-02-23T07:22:41.332Z,82.19
2018-02-23T07:23:41.317Z,81.24
2018-02-23T07:24:41.304Z,81.05
2018-02-23T07:25:41.290Z,81.15
2018-02-23T07:26:41.272Z,81.43
2018-02-23T07:27:41.261Z,81.43
2018-02-23T07:28:41.251Z,81.72
2018-02-23T07:29:41.234Z,80.87
2018-02-23T07:30:41.222Z,81.24
2018-02-23T07:31:41.205Z,81.34
2018-02-23T07:32:41.192Z,82.00
2018-02-23T07:33:41.181Z,80.87
2018-02-23T07:34:41.166Z,80.68
2018-02-23T07:35:41.150Z,82.19
2018-02-23T07:36:41.213Z,81.62
2018-02-23T07:37:41.122Z,82.00
2018-02-23T07:38:41.108Z,81.62
2018-02-23T07:39:41.109Z,81.24
2018-02-23T07:40:41.085Z,82.00
2018-02-23T07:41:41.067Z,81.24
2018-02-23T07:42:41.053Z,81.53
2018-02-23T07:43:41.043Z,81.43
2018-02-23T07:44:41.022Z,81.72
2018-02-23T07:45:41.018Z,81.34
2018-02-23T07:46:40.998Z,81.53
2018-02-23T07:47:40.986Z,81.24
2018-02-23T07:48:40.971Z,81.53
2018-02-23T07:49:40.959Z,81.53
2018-02-23T07:50:40.943Z,81.62
2018-02-23T07:51:40.928Z,81.62
2018-02-23T07:52:40.915Z,81.81
2018-02-23T07:53:40.902Z,81.53
2018-02-23T07:54:40.887Z,81.43
2018-02-23T07:55:40.884Z,81.53
2018-02-23T07:56:40.862Z,81.43
2018-02-23T07:57:40.856Z,81.43
2018-02-23T07:58:40.832Z,81.34
2018-02-23T07:59:40.817Z,81.53
2018-02-23T08:00:40.807Z,81.91
2018-02-23T08:01:40.793Z,82.38
2018-02-23T08:02:40.774Z,81.81
2018-02-23T08:03:40.760Z,81.43
2018-02-23T08:04:40.748Z,80.77
2018-02-23T08:05:40.735Z,81.43
2018-02-23T08:06:40.721Z,81.81
2018-02-23T08:07:40.710Z,81.62
2018-02-23T08:08:40.692Z,80.96
2018-02-23T08:09:40.679Z,81.53
2018-02-23T08:10:40.664Z,82.10
2018-02-23T08:11:40.654Z,81.43
2018-02-23T08:12:40.644Z,81.81
2018-02-23T08:13:40.626Z,81.72
2018-02-23T08:14:40.636Z,81.43
2018-02-23T08:15:40.596Z,81.81
2018-02-23T08:16:40.580Z,81.81
2018-02-23T08:17:40.566Z,81.81
2018-02-23T08:18:40.551Z,82.47
2018-02-23T08:19:40.544Z,81.72
2018-02-23T08:20:40.526Z,81.43
2018-02-23T08:21:40.512Z,81.34
2018-02-23T08:22:40.497Z,81.05
2018-02-23T08:23:40.485Z,81.24
2018-02-23T08:24:40.470Z,81.91
2018-02-23T08:25:40.456Z,80.96
2018-02-23T08:26:40.442Z,81.53
2018-02-23T08:27:40.430Z,81.62
2018-02-23T08:28:40.420Z,80.87
2018-02-23T08:29:40.403Z,81.91
2018-02-23T08:30:40.386Z,80.87
2018-02-23T08:31:40.378Z,81.05
2018-02-23T08:32:40.361Z,81.43
2018-02-23T08:33:40.350Z,81.24
2018-02-23T08:34:40.332Z,80.87
2018-02-23T08:35:40.319Z,81.43
2018-02-23T08:36:40.305Z,81.05
2018-02-23T08:37:40.298Z,80.49
2018-02-23T08:38:40.279Z,81.05
2018-02-23T08:39:40.266Z,81.24
2018-02-23T08:40:40.252Z,81.05
2018-02-23T08:41:40.236Z,81.24
2018-02-23T08:42:40.228Z,80.68
2018-02-23T08:43:40.210Z,81.91
2018-02-23T08:44:40.196Z,80.30
2018-02-23T08:45:40.183Z,80.96
2018-02-23T08:46:40.167Z,80.87
2018-02-23T08:47:40.215Z,80.21
2018-02-23T08:48:40.147Z,80.68
2018-02-23T08:49:40.136Z,80.63
2018-02-23T08:50:40.122Z,81.67
2018-02-23T08:51:40.104Z,81.01
2018-02-23T08:52:40.088Z,80.82
2018-02-23T08:53:40.075Z,81.01
2018-02-23T08:54:40.073Z,80.44
2018-02-23T08:55:40.046Z,81.20
2018-02-23T08:56:40.035Z,80.63
2018-02-23T08:57:40.022Z,80.72
2018-02-23T08:58:40.006Z,80.72
2018-02-23T08:59:39.993Z,80.44
2018-02-23T09:00:39.981Z,80.53
2018-02-23T09:01:39.966Z,81.01
2018-02-23T09:02:39.953Z,81.29
2018-02-23T09:03:39.940Z,79.68
2018-02-23T09:04:39.928Z,80.15
2018-02-23T09:05:39.913Z,81.67
2018-02-23T09:06:39.900Z,80.87
2018-02-23T09:07:39.885Z,80.25
2018-02-23T09:08:39.873Z,80.72
2018-02-23T09:09:39.858Z,80.25
2018-02-23T09:10:39.844Z,80.15
2018-02-23T09:11:39.833Z,80.34
2018-02-23T09:12:39.817Z,80.06
2018-02-23T09:13:39.806Z,79.97
2018-02-23T09:14:39.790Z,80.34
2018-02-23T09:15:39.780Z,80.25
2018-02-23T09:16:39.763Z,80.44
2018-02-23T09:17:39.754Z,79.97
2018-02-23T09:18:39.737Z,80.44
2018-02-23T09:19:39.723Z,80.06
2018-02-23T09:20:39.707Z,80.72
2018-02-23T09:21:39.695Z,80.15
2018-02-23T09:22:39.683Z,79.78
2018-02-23T09:23:39.669Z,80.15
2018-02-23T09:24:39.688Z,80.15
2018-02-23T09:25:39.643Z,80.25
2018-02-23T09:26:39.630Z,80.06
2018-02-23T09:27:39.614Z,79.59
2018-02-23T09:28:39.601Z,79.59
2018-02-23T09:29:39.588Z,80.06
2018-02-23T09:30:39.574Z,79.59
2018-02-23T09:31:39.560Z,79.11
2018-02-23T09:32:39.548Z,79.21
2018-02-23T09:33:39.533Z,78.74
2018-02-23T09:34:39.521Z,79.11
2018-02-23T09:35:39.507Z,79.11
2018-02-23T09:36:39.492Z,79.59
2018-02-23T09:37:39.482Z,79.30
2018-02-23T09:38:39.467Z,79.59
2018-02-23T09:39:39.454Z,79.59
2018-02-23T09:40:39.438Z,79.02
2018-02-23T09:41:39.427Z,79.49
2018-02-23T09:42:39.416Z,79.30
2018-02-23T09:43:39.424Z,79.87
2018-02-23T09:44:39.392Z,78.74
2018-02-23T09:45:39.372Z,80.34
2018-02-23T09:46:39.357Z,79.68
2018-02-23T09:47:39.345Z,79.59
2018-02-23T09:48:39.331Z,79.40
2018-02-23T09:49:39.324Z,78.55
2018-02-23T09:50:39.309Z,78.55
2018-02-23T09:51:39.289Z,79.16
2018-02-23T09:52:39.278Z,78.45
2018-02-23T09:53:39.266Z,78.36
2018-02-23T09:54:39.256Z,78.74
2018-02-23T09:55:39.238Z,78.36
2018-02-23T09:56:39.274Z,79.40
2018-02-23T09:57:39.214Z,79.68
2018-02-23T09:58:39.199Z,78.59
2018-02-23T09:59:39.187Z,78.68
2018-02-23T10:00:39.175Z,78.27
2018-02-23T10:01:39.159Z,78.87
2018-02-23T10:02:39.147Z,78.45
2018-02-23T10:03:39.133Z,78.27
2018-02-23T10:04:39.124Z,77.80
2018-02-23T10:05:39.106Z,78.08
2018-02-23T10:06:39.094Z,78.55
2018-02-23T10:07:39.081Z,78.55
2018-02-23T10:08:39.072Z,78.64
2018-02-23T10:09:39.058Z,79.11
2018-02-23T10:10:39.042Z,78.36
2018-02-23T10:11:39.030Z,77.51
2018-02-23T10:12:39.016Z,77.61
2018-02-23T10:13:39.007Z,77.80
2018-02-23T10:14:38.989Z,77.74
2018-02-23T10:15:38.978Z,78.02
2018-02-23T10:16:38.964Z,77.45
2018-02-23T10:17:38.950Z,77.36
2018-02-23T10:18:38.935Z,77.36
2018-02-23T10:19:38.922Z,77.08
2018-02-23T10:20:38.918Z,77.17
2018-02-23T10:21:38.899Z,76.98
2018-02-23T10:22:38.881Z,77.45
2018-02-23T10:23:38.875Z,76.98
2018-02-23T10:24:38.857Z,77.08
2018-02-23T10:25:38.849Z,76.76
2018-02-23T10:26:38.832Z,77.42
2018-02-23T10:27:38.813Z,77.70
2018-02-23T10:28:38.807Z,77.42
2018-02-23T10:29:38.796Z,76.85
2018-02-23T10:30:38.779Z,76.79
2018-02-23T10:31:38.771Z,78.12
2018-02-23T10:32:38.798Z,77.64
2018-02-23T10:33:38.741Z,77.74
2018-02-23T10:34:38.726Z,77.64
2018-02-23T10:35:38.713Z,78.02
2018-02-23T10:36:38.699Z,77.55
2018-02-23T10:37:38.689Z,77.74
2018-02-23T10:38:38.674Z,78.87
2018-02-23T10:39:38.660Z,77.93
2018-02-23T10:40:38.648Z,78.21
2018-02-23T10:41:38.635Z,77.93
2018-02-23T10:42:38.628Z,78.02
2018-02-23T10:43:38.608Z,77.83
2018-02-23T10:44:38.596Z,77.93
2018-02-23T10:45:38.584Z,77.83
2018-02-23T10:46:38.568Z,78.21
2018-02-23T10:47:38.559Z,77.55
2018-02-23T10:48:38.544Z,77.36
2018-02-23T10:49:38.531Z,78.02
2018-02-23T10:50:38.515Z,78.12
2018-02-23T10:51:38.511Z,77.74
2018-02-23T10:52:38.499Z,78.21
2018-02-23T10:53:38.477Z,77.36
2018-02-23T10:54:38.467Z,78.59
2018-02-23T10:55:38.454Z,78.87
2018-02-23T10:56:38.449Z,78.59
2018-02-23T10:57:38.433Z,78.68
2018-02-23T10:58:38.418Z,77.74
2018-02-23T10:59:38.401Z,77.93
2018-02-23T11:00:38.394Z,76.79
2018-02-23T11:01:38.381Z,77.93
2018-02-23T11:02:38.371Z,75.38
2018-02-23T11:03:38.355Z,75.00
2018-02-23T11:04:38.347Z,75.57
2018-02-23T11:05:38.328Z,74.24
2018-02-23T11:06:38.319Z,73.77
2018-02-23T11:07:38.304Z,72.83
2018-02-23T11:08:38.291Z,73.68
2018-02-23T11:09:38.276Z,72.36
2018-02-23T11:10:38.265Z,73.02
2018-02-23T11:11:38.253Z,71.22
2018-02-23T11:12:38.239Z,69.14
2018-02-23T11:13:38.231Z,69.90
2018-02-23T11:14:38.217Z,70.09
2018-02-23T11:15:38.203Z,68.95
2018-02-23T11:16:38.189Z,69.52
2018-02-23T11:17:38.181Z,69.33
2018-02-23T11:18:38.176Z,69.52
2018-02-23T11:19:38.152Z,69.18
2018-02-23T11:20:38.137Z,69.81
2018-02-23T11:21:38.129Z,70.28
2018-02-23T11:22:38.113Z,70.56
2018-02-23T11:23:38.105Z,71.35
2018-02-23T11:24:38.089Z,70.09
2018-02-23T11:25:38.072Z,70.47
2018-02-23T11:26:38.063Z,70.75
2018-02-23T11:27:38.053Z,69.46
2018-02-23T11:28:38.041Z,68.71
2018-02-23T11:29:38.027Z,68.61
2018-02-23T11:30:38.018Z,69.46
2018-02-23T11:31:38.007Z,69.37
2018-02-23T11:32:37.989Z,69.65
2018-02-23T11:33:37.977Z,69.74
2018-02-23T11:34:37.966Z,69.37
2018-02-23T11:35:37.949Z,68.61
2018-02-23T11:36:37.940Z,67.85
2018-02-23T11:37:37.928Z,67.76
2018-02-23T11:38:37.917Z,67.29
2018-02-23T11:39:37.904Z,67.76
2018-02-23T11:40:37.888Z,67.57
2018-02-23T11:41:38.604Z,70.59
2018-02-23T11:42:37.866Z,71.16
2018-02-23T11:43:37.855Z,68.71
2018-02-23T11:44:37.843Z,67.19
2018-02-23T11:45:37.829Z,66.25
2018-02-23T11:46:37.817Z,66.25
2018-02-23T11:47:37.805Z,65.97
2018-02-23T11:48:37.793Z,66.44
2018-02-23T11:49:37.781Z,66.25
2018-02-23T11:50:37.768Z,65.02
2018-02-23T11:51:37.756Z,63.51
2018-02-23T11:52:37.743Z,62.85
2018-02-23T11:53:37.731Z,61.71
2018-02-23T11:54:37.720Z,61.05
2018-02-23T11:55:37.761Z,60.58
2018-02-23T11:56:37.698Z,60.77
2018-02-23T11:57:37.684Z,60.67
2018-02-23T11:58:37.672Z,60.11
2018-02-23T11:59:37.661Z,60.96
2018-02-23T12:00:37.648Z,60.96
2018-02-23T12:01:37.637Z,60.96
2018-02-23T12:02:37.623Z,60.58
2018-02-23T12:03:37.610Z,58.69
2018-02-23T12:04:37.599Z,58.31
2018-02-23T12:05:37.588Z,57.74
2018-02-23T12:06:37.578Z,58.97
2018-02-23T12:07:37.564Z,58.69
2018-02-23T12:08:37.545Z,60.01
2018-02-23T12:09:37.539Z,59.25
2018-02-23T12:10:37.524Z,58.69
2018-02-23T12:11:37.517Z,57.30
2018-02-23T12:12:37.503Z,56.63
2018-02-23T12:13:37.491Z,55.57
2018-02-23T12:14:37.478Z,55.76
2018-02-23T12:15:37.467Z,56.04
2018-02-23T12:16:37.459Z,56.70
2018-02-23T12:17:37.447Z,57.08
2018-02-23T12:18:37.431Z,58.40
2018-02-23T12:19:37.420Z,58.34
2018-02-23T12:20:37.409Z,57.37
2018-02-23T12:21:37.396Z,56.54
2018-02-23T12:22:37.388Z,55.41
2018-02-23T12:23:37.371Z,54.65
2018-02-23T12:24:37.360Z,53.23
2018-02-23T12:25:37.347Z,52.57
2018-02-23T12:26:37.335Z,52.48
2018-02-23T12:27:37.323Z,52.67
2018-02-23T12:28:37.317Z,52.67
2018-02-23T12:29:37.301Z,52.00
2018-02-23T12:30:37.291Z,52.19
2018-02-23T12:31:37.277Z,51.53
2018-02-23T12:32:37.265Z,52.10
2018-02-23T12:33:37.254Z,51.15
2018-02-23T12:34:37.240Z,51.41
2018-02-23T12:35:37.229Z,51.25
2018-02-23T12:36:37.217Z,51.15
2018-02-23T12:37:37.207Z,51.72
2018-02-23T12:38:37.194Z,52.10
2018-02-23T12:39:37.204Z,52.38
2018-02-23T12:40:37.222Z,52.92
2018-02-23T12:41:37.160Z,53.39
2018-02-23T12:42:37.147Z,53.77
2018-02-23T12:43:37.136Z,54.53
2018-02-23T12:44:37.197Z,54.65
2018-02-23T12:45:37.113Z,53.99
2018-02-23T12:46:37.101Z,53.23
2018-02-23T12:47:37.093Z,51.25
2018-02-23T12:48:37.079Z,51.62
2018-02-23T12:49:37.067Z,51.34
2018-02-23T12:50:37.056Z,51.53
2018-02-23T12:51:37.042Z,51.62
2018-02-23T12:52:37.030Z,51.62